Time;durP1;ratioP1;P1;durP2;ratioP2;P2;SDS_P1;SDS_P2;PMS_P1;PMS_P2;Temp;Humidity;BMP_temperature;BMP_pressure;BME280_temperature;BME280_humidity;BME280_pressure;Samples;Min_cycle;Max_cycle;Signal;HPM_P1;HPM_P2
2023/07/20 00:00:20;;;;;;;5.72;3.00;;;18.70;83.90;;;19.49;60.18;100344.88;4973522;28;20798;-86
2023/07/20 00:02:51;;;;;;;5.78;2.78;;;18.70;84.00;;;19.50;60.52;100343.78;4974043;28;20150;-86
2023/07/20 00:05:21;;;;;;;9.15;2.90;;;18.70;84.10;;;19.50;60.44;100343.78;4975373;28;20133;-86
2023/07/20 00:07:51;;;;;;;7.22;3.10;;;18.70;84.20;;;19.50;60.25;100340.25;4989860;28;20415;-86
2023/07/20 00:10:19;;;;;;;6.97;3.03;;;18.80;84.10;;;19.49;60.41;100349.47;4973312;28;20089;-86
2023/07/20 00:12:48;;;;;;;6.43;3.13;;;18.80;84.30;;;19.49;60.76;100344.06;4974850;28;20129;-86
2023/07/20 00:15:16;;;;;;;7.43;2.95;;;18.70;84.40;;;19.50;61.04;100345.69;4973527;28;20105;-86
2023/07/20 00:17:44;;;;;;;6.65;2.90;;;18.80;84.40;;;19.51;60.62;100342.69;4974721;28;20043;-86
2023/07/20 00:20:12;;;;;;;8.55;3.22;;;18.80;84.30;;;19.52;60.64;100338.09;4957115;28;20043;-86
2023/07/20 00:22:40;;;;;;;7.05;3.17;;;18.80;84.40;;;19.54;60.75;100335.94;4974732;28;20042;-86
2023/07/20 00:25:08;;;;;;;6.28;2.80;;;18.80;84.40;;;19.54;60.53;100334.03;4974851;28;20066;-86
2023/07/20 00:27:35;;;;;;;6.63;2.92;;;18.80;84.30;;;19.54;60.58;100331.34;4973495;28;20049;-86
2023/07/20 00:30:06;;;;;;;6.75;2.60;;;18.80;84.10;;;19.51;60.57;100323.75;4973033;28;20070;-86
2023/07/20 00:32:34;;;;;;;6.28;2.90;;;18.80;84.10;;;19.50;60.36;100329.44;4973491;28;20504;-86
2023/07/20 00:35:01;;;;;;;7.47;2.60;;;18.80;84.20;;;19.45;60.65;100322.16;4973265;28;20097;-86
2023/07/20 00:37:30;;;;;;;8.13;2.75;;;18.70;84.10;;;19.43;60.43;100321.63;4989600;28;20043;-86
2023/07/20 00:39:57;;;;;;;6.47;2.60;;;18.60;84.20;;;19.40;60.48;100327.56;4972969;28;20070;-86
2023/07/20 00:42:26;;;;;;;6.65;2.92;;;18.60;84.20;;;19.38;60.43;100320.81;4973122;28;20420;-86
2023/07/20 00:44:53;;;;;;;7.82;3.17;;;18.50;84.50;;;19.36;60.42;100325.69;4973243;28;20046;-87
2023/07/20 00:47:22;;;;;;;8.45;2.88;;;18.50;84.50;;;19.33;60.56;100328.94;4973110;28;20058;-86
2023/07/20 00:49:51;;;;;;;7.10;2.80;;;18.50;84.50;;;19.30;60.35;100319.47;4989069;28;20046;-86
2023/07/20 00:52:19;;;;;;;9.82;3.20;;;18.40;84.50;;;19.27;60.38;100320.00;4973062;28;20141;-86
2023/07/20 00:54:48;;;;;;;7.22;3.10;;;18.40;84.50;;;19.24;60.57;100315.16;4989483;28;20038;-86
2023/07/20 00:57:17;;;;;;;8.85;3.55;;;18.40;84.50;;;19.23;60.52;100305.44;4989024;28;20042;-86
2023/07/20 00:59:44;;;;;;;7.82;3.78;;;18.40;84.70;;;19.20;60.73;100325.69;4972428;28;20047;-86
2023/07/20 01:02:12;;;;;;;9.07;3.28;;;18.30;84.80;;;19.19;60.79;100323.28;4972750;28;20043;-86
2023/07/20 01:04:43;;;;;;;12.48;3.92;;;18.30;85.10;;;19.20;61.02;100331.13;4988924;28;20055;-86
2023/07/20 01:07:18;;;;;;;9.07;3.33;;;18.30;85.20;;;19.18;61.36;100327.88;4988240;28;20490;-86
2023/07/20 01:10:01;;;;;;;8.07;3.45;;;18.30;85.50;;;19.19;61.39;100328.69;4972748;28;20054;-86
2023/07/20 01:12:42;;;;;;;6.85;3.60;;;18.40;85.50;;;19.19;61.61;100326.78;4973326;28;20479;-86
2023/07/20 01:15:09;;;;;;;8.77;4.05;;;18.40;85.70;;;19.18;61.44;100324.34;4972729;28;20074;-86
2023/07/20 01:17:37;;;;;;;6.95;3.53;;;18.40;85.80;;;19.16;61.74;100321.91;4988754;28;20767;-86
2023/07/20 01:20:08;;;;;;;9.73;3.42;;;18.30;85.90;;;19.18;61.71;100313.53;4972300;28;20050;-86
2023/07/20 01:22:58;;;;;;;9.40;3.63;;;18.40;85.90;;;19.17;61.54;100311.91;4972855;28;20626;-86
2023/07/20 01:25:52;;;;;;;9.70;3.75;;;18.40;85.60;;;19.17;61.71;100320.03;4972651;28;20145;-86
2023/07/20 01:28:49;;;;;;;8.98;3.72;;;18.40;85.70;;;19.15;61.53;100314.09;4988598;28;20051;-86
2023/07/20 01:31:33;;;;;;;6.50;3.30;;;18.30;85.70;;;19.12;61.63;100320.84;4973847;28;20062;-86
2023/07/20 01:34:04;;;;;;;14.30;3.97;;;18.30;85.90;;;19.09;61.41;100317.88;4972498;28;20136;-86
2023/07/20 01:36:37;;;;;;;8.65;3.65;;;18.30;85.90;;;19.07;61.89;100311.91;4972217;28;20039;-86
2023/07/20 01:39:05;;;;;;;8.82;3.70;;;18.30;86.20;;;19.08;61.66;100316.25;4971900;28;20098;-86
2023/07/20 01:41:33;;;;;;;6.90;3.70;;;18.20;86.10;;;19.07;61.56;100314.63;4973433;28;20035;-86
2023/07/20 01:44:02;;;;;;;10.75;3.80;;;18.20;86.20;;;19.06;61.90;100321.13;4972596;28;20050;-85
2023/07/20 01:46:30;;;;;;;8.52;3.88;;;18.20;86.30;;;19.04;62.10;100316.00;4972459;28;20408;-86
2023/07/20 01:48:58;;;;;;;13.18;4.82;;;18.20;86.50;;;19.03;62.28;100317.88;4972239;28;20070;-86
2023/07/20 01:51:25;;;;;;;7.63;4.03;;;18.20;86.60;;;19.01;62.24;100319.22;4973673;28;20043;-86
2023/07/20 01:53:53;;;;;;;11.23;4.93;;;18.20;86.70;;;18.97;62.76;100315.44;4972335;28;20082;-86
2023/07/20 01:56:20;;;;;;;9.40;4.68;;;18.20;87.10;;;18.96;62.82;100309.22;4988488;28;20109;-86
2023/07/20 01:58:47;;;;;;;11.48;4.45;;;18.20;87.20;;;18.95;63.20;100307.59;4988429;28;20419;-86
2023/07/20 02:01:14;;;;;;;11.93;5.63;;;18.20;87.50;;;18.98;63.55;100308.94;4988318;28;20733;-86
2023/07/20 02:03:43;;;;;;;11.85;5.50;;;18.30;88.20;;;18.96;64.33;100303.81;4972162;28;20089;-86
2023/07/20 02:06:11;;;;;;;8.75;4.88;;;18.20;88.70;;;18.95;64.63;100306.81;4971994;28;20695;-86
2023/07/20 02:08:38;;;;;;;10.30;4.90;;;18.20;89.30;;;18.94;65.22;100300.59;4972160;28;20051;-86
2023/07/20 02:11:05;;;;;;;8.60;5.07;;;18.20;89.60;;;18.94;65.03;100300.59;4988394;28;20051;-86
2023/07/20 02:13:33;;;;;;;12.30;4.85;;;18.20;89.80;;;18.92;65.36;100310.84;4973147;28;20101;-86
2023/07/20 02:16:00;;;;;;;11.38;5.07;;;18.20;90.00;;;18.91;65.15;100305.72;4971972;28;20055;-86
2023/07/20 02:18:27;;;;;;;9.50;5.30;;;18.20;90.20;;;18.90;65.30;100304.91;4988642;28;20051;-87
2023/07/20 02:20:56;;;;;;;12.70;5.13;;;18.20;90.50;;;18.92;65.73;100307.34;4991944;28;20071;-87
2023/07/20 02:23:23;;;;;;;7.68;4.90;;;18.20;90.60;;;18.92;65.80;100312.75;4992160;28;20078;-87
2023/07/20 02:25:51;;;;;;;11.63;5.38;;;18.20;90.70;;;18.94;65.64;100311.41;4975893;28;20078;-86
2023/07/20 02:28:18;;;;;;;11.52;5.70;;;18.20;90.70;;;18.95;65.84;100309.50;4991760;28;20043;-87
2023/07/20 02:30:46;;;;;;;10.13;5.65;;;18.20;90.90;;;18.95;66.01;100302.19;4975559;28;20174;-86
2023/07/20 02:33:13;;;;;;;8.27;5.53;;;18.20;90.80;;;18.96;66.05;100308.41;4975719;28;20590;-86
2023/07/20 02:35:41;;;;;;;9.77;5.47;;;18.20;91.00;;;18.93;66.16;100315.16;4975609;28;20046;-86
2023/07/20 02:38:10;;;;;;;10.13;5.63;;;18.20;91.30;;;18.92;66.43;100316.25;4975427;28;20074;-87
2023/07/20 02:40:38;;;;;;;14.30;6.68;;;18.20;91.40;;;18.89;66.48;100308.69;4991562;28;20047;-86
2023/07/20 02:43:05;;;;;;;11.13;6.43;;;18.20;91.60;;;18.87;66.96;100320.84;4975536;28;20480;-86
2023/07/20 02:45:32;;;;;;;11.20;6.95;;;18.10;92.00;;;18.85;67.07;100317.63;4975412;28;20074;-86
2023/07/20 02:48:00;;;;;;;11.05;6.78;;;18.10;92.00;;;18.87;66.49;100321.66;4976348;28;20129;-87
2023/07/20 02:50:28;;;;;;;12.00;6.47;;;18.20;91.80;;;18.88;66.67;100327.88;4991287;28;20081;-86
2023/07/20 02:52:55;;;;;;;13.38;7.15;;;18.20;91.80;;;18.88;66.79;100333.28;4975267;28;20093;-86
2023/07/20 02:55:24;;;;;;;11.93;6.93;;;18.20;91.80;;;18.86;66.99;100332.75;4991293;28;20074;-87
2023/07/20 02:57:51;;;;;;;16.02;8.15;;;18.20;92.00;;;18.84;67.46;100321.38;4975441;28;20058;-86
2023/07/20 03:00:19;;;;;;;13.32;7.90;;;18.10;92.20;;;18.83;67.41;100327.88;4974942;28;20039;-87
2023/07/20 03:02:47;;;;;;;16.20;7.97;;;18.10;92.40;;;18.78;67.56;100336.78;4975162;28;20042;-87
2023/07/20 03:05:15;;;;;;;14.85;7.78;;;18.10;92.70;;;18.78;67.62;100323.25;4975125;28;20042;-87
2023/07/20 03:07:43;;;;;;;14.07;8.23;;;18.10;92.80;;;18.73;67.74;100334.88;4990954;28;20054;-87
2023/07/20 03:10:11;;;;;;;13.55;8.68;;;18.10;93.20;;;18.63;68.30;100326.72;4974608;28;20046;-87
2023/07/20 03:12:41;;;;;;;11.95;7.70;;;18.00;93.20;;;18.63;68.24;100331.31;4974977;28;20078;-87
2023/07/20 03:15:10;;;;;;;13.23;7.80;;;18.00;93.20;;;18.67;67.93;100330.53;4974793;28;20051;-87
2023/07/20 03:17:37;;;;;;;12.63;7.93;;;18.00;93.20;;;18.69;67.83;100331.13;4974847;28;20427;-87
2023/07/20 03:20:09;;;;;;;12.73;8.63;;;18.10;93.10;;;18.65;67.61;100324.59;4974283;28;20069;-87
2023/07/20 03:22:36;;;;;;;;;;;18.00;92.90;;;18.63;67.68;100326.72;4975438;28;20400;-87
2023/07/20 03:25:05;;;;;;;13.98;7.32;;;18.00;92.90;;;18.63;67.62;100332.13;4974736;28;20441;-87
2023/07/20 03:27:32;;;;;;;11.23;8.00;;;18.00;92.70;;;18.63;67.30;100332.13;4974633;28;20049;-87
2023/07/20 03:30:03;;;;;;;11.50;7.60;;;18.00;92.40;;;18.62;67.01;100329.72;4973463;28;20046;-87
2023/07/20 03:32:31;;;;;;;10.77;7.82;;;18.00;92.30;;;18.59;67.38;100331.03;4984412;28;20043;-87
2023/07/20 03:34:58;;;;;;;11.15;6.90;;;17.90;92.60;;;18.60;66.91;100339.97;4975782;28;20038;-87
2023/07/20 03:37:25;;;;;;;11.07;7.30;;;17.90;92.40;;;18.60;66.66;100339.97;4974470;28;20401;-87
2023/07/20 03:39:52;;;;;;;13.10;7.15;;;17.90;92.20;;;18.60;66.55;100339.97;4974166;28;20484;-87
2023/07/20 03:42:20;;;;;;;10.60;6.97;;;17.90;92.00;;;18.60;66.24;100338.09;4974547;28;20408;-87
2023/07/20 03:44:47;;;;;;;12.05;7.40;;;17.90;92.00;;;18.61;66.26;100338.91;4974556;28;20505;-87
2023/07/20 03:47:16;;;;;;;12.13;7.55;;;17.90;91.80;;;18.60;66.16;100343.50;4974488;28;20085;-87
2023/07/20 03:49:43;;;;;;;14.85;7.97;;;17.80;91.60;;;18.59;66.08;100349.16;4973887;28;20061;-87
2023/07/20 03:52:10;;;;;;;10.85;7.75;;;17.90;91.70;;;18.58;66.27;100344.81;4974249;28;20051;-87
2023/07/20 03:54:38;;;;;;;12.73;8.13;;;17.80;91.60;;;18.57;66.09;100343.22;4974292;28;20074;-87
2023/07/20 03:57:06;;;;;;;11.48;8.02;;;17.80;91.70;;;18.55;66.09;100343.47;4974164;28;20047;-87
2023/07/20 03:59:33;;;;;;;13.93;8.07;;;17.80;91.60;;;18.55;66.14;100340.78;4973647;28;20046;-87
2023/07/20 04:02:00;;;;;;;14.88;8.60;;;17.80;91.90;;;18.56;66.36;100344.28;4974006;28;20114;-87
2023/07/20 04:04:29;;;;;;;12.25;8.52;;;17.80;92.10;;;18.55;67.01;100350.78;4974243;28;20054;-87
2023/07/20 04:06:56;;;;;;;16.20;9.23;;;17.80;92.60;;;18.52;67.22;100344.00;4975353;28;20454;-87
2023/07/20 04:09:24;;;;;;;16.02;9.10;;;17.80;93.00;;;18.52;67.43;100350.22;4976692;28;20479;-87
2023/07/20 04:11:51;;;;;;;12.05;8.35;;;17.80;93.20;;;18.52;67.70;100352.91;4997552;28;20050;-86
2023/07/20 04:14:18;;;;;;;15.90;9.77;;;17.80;93.50;;;18.53;68.07;100354.53;4999748;28;20063;-86
2023/07/20 04:16:47;;;;;;;12.00;8.30;;;17.90;94.10;;;18.53;68.61;100357.22;4998412;28;20027;-86
2023/07/20 04:19:15;;;;;;;14.88;9.10;;;17.80;93.70;;;18.55;68.42;100358.88;4989826;28;20052;-86
2023/07/20 04:21:44;;;;;;;17.50;9.18;;;17.80;94.00;;;18.56;68.46;100358.59;4975204;28;20070;-86
2023/07/20 04:24:11;;;;;;;14.88;9.93;;;17.90;94.30;;;18.56;68.58;100360.50;4973535;28;20163;-87
2023/07/20 04:26:39;;;;;;;15.32;10.18;;;17.90;94.30;;;18.57;69.17;100362.91;4973711;28;20043;-86
2023/07/20 04:29:06;;;;;;;19.48;12.02;;;18.00;94.90;;;18.60;69.17;100358.88;4973355;28;20043;-86
2023/07/20 04:31:40;;;;;;;18.05;13.35;;;18.00;94.70;;;18.63;69.49;100369.16;4973573;28;20043;-86
2023/07/20 04:34:07;;;;;;;22.52;14.05;;;18.00;95.10;;;18.64;69.40;100368.06;4974638;28;20043;-87
2023/07/20 04:36:36;;;;;;;20.33;13.73;;;18.00;95.10;;;18.65;69.72;100367.00;4973522;28;20050;-87
2023/07/20 04:39:08;;;;;;;20.63;13.32;;;18.00;95.10;;;18.58;70.01;100367.25;4989232;28;20054;-87
2023/07/20 04:41:39;;;;;;;21.73;14.63;;;18.00;95.00;;;18.62;69.72;100370.22;4972738;28;20046;-87
2023/07/20 04:44:06;;;;;;;21.45;13.90;;;18.00;95.00;;;18.63;69.60;100369.16;4973339;28;20128;-87
2023/07/20 04:46:34;;;;;;;19.60;13.32;;;18.10;95.00;;;18.69;69.08;100378.91;4973776;28;20146;-87
2023/07/20 04:49:03;;;;;;;24.73;14.52;;;18.10;94.50;;;18.76;69.08;100376.78;4974692;28;20042;-87
2023/07/20 04:51:34;;;;;;;19.90;13.35;;;18.20;94.40;;;18.76;68.89;100374.06;4958087;28;20046;-86
2023/07/20 04:54:01;;;;;;;21.17;13.38;;;18.20;94.40;;;18.75;68.89;100375.97;4973649;28;20051;-87
2023/07/20 04:56:36;;;;;;;17.80;14.48;;;18.10;94.30;;;18.75;68.61;100383.25;4974752;28;20051;-87
2023/07/20 04:59:06;;;;;;;20.55;13.30;;;18.10;94.20;;;18.73;69.06;100380.00;4958032;28;20452;-87
2023/07/20 05:01:34;;;;;;;20.85;13.20;;;18.10;94.30;;;18.75;68.68;100380.56;4926926;28;20503;-87
2023/07/20 05:04:03;;;;;;;17.63;12.95;;;18.10;94.20;;;18.74;68.75;100378.94;4974733;28;20102;-87
2023/07/20 05:06:30;;;;;;;15.40;12.05;;;18.10;94.30;;;18.76;68.46;100391.09;4974684;28;20057;-87
2023/07/20 05:08:58;;;;;;;17.00;12.57;;;18.10;94.00;;;18.74;68.41;100389.75;4973925;28;20043;-87
2023/07/20 05:11:25;;;;;;;17.20;12.27;;;18.10;93.80;;;18.73;68.29;100388.09;4973249;28;20070;-87
2023/07/20 05:13:54;;;;;;;15.75;11.85;;;18.10;94.00;;;18.73;68.53;100391.63;4989849;28;20047;-87
2023/07/20 05:16:21;;;;;;;18.10;12.88;;;18.10;94.10;;;18.72;68.41;100395.41;4990320;28;20046;-87
2023/07/20 05:18:49;;;;;;;15.27;11.95;;;18.10;94.10;;;18.73;68.69;100396.22;4972584;28;20047;-87
2023/07/20 05:21:16;;;;;;;14.82;11.20;;;18.10;94.30;;;18.70;68.77;100396.75;4972677;28;20159;-87
2023/07/20 05:23:44;;;;;;;18.73;11.20;;;18.10;94.40;;;18.65;68.51;100399.44;4972604;28;20065;-87
2023/07/20 05:26:13;;;;;;;13.43;11.25;;;18.10;94.10;;;18.61;68.97;100401.84;4972596;28;20072;-87
2023/07/20 05:28:40;;;;;;;16.73;11.43;;;18.00;94.30;;;18.58;68.87;100391.56;4973601;28;20046;-87
2023/07/20 05:31:09;;;;;;;12.60;10.38;;;18.00;94.40;;;18.58;68.84;100399.66;4973701;28;20113;-87
2023/07/20 05:33:36;;;;;;;13.77;10.73;;;18.00;94.20;;;18.62;69.31;100399.94;4973689;28;20119;-87
2023/07/20 05:36:04;;;;;;;15.85;11.35;;;18.00;94.80;;;18.66;69.36;100401.03;4988771;28;20046;-87
2023/07/20 05:38:31;;;;;;;13.88;10.70;;;18.10;95.20;;;18.68;69.62;100412.38;4973510;28;20043;-88
2023/07/20 05:41:01;;;;;;;13.15;9.88;;;18.00;95.00;;;18.67;69.46;100411.56;4973596;28;20471;-87
2023/07/20 05:43:29;;;;;;;13.15;9.35;;;18.10;94.80;;;18.67;68.93;100403.47;4973786;28;20043;-87
2023/07/20 05:45:56;;;;;;;10.52;9.10;;;18.10;94.60;;;18.59;68.39;100406.69;4988563;28;20077;-87
2023/07/20 05:48:25;;;;;;;11.07;8.30;;;18.00;93.80;;;18.48;69.30;100410.44;4973456;28;20122;-87
2023/07/20 05:50:52;;;;;;;10.90;8.05;;;18.00;94.40;;;18.53;69.19;100413.97;4972432;28;20039;-87
2023/07/20 05:53:19;;;;;;;12.90;9.75;;;18.00;94.40;;;18.46;68.24;100418.81;4973984;28;20668;-87
2023/07/20 05:55:54;;;;;;;10.88;8.45;;;17.90;93.30;;;18.39;67.74;100420.13;4992705;28;20133;-87
2023/07/20 05:58:21;;;;;;;11.77;8.70;;;17.80;92.60;;;18.40;68.15;100422.56;4977392;28;20038;-87
2023/07/20 06:00:50;;;;;;;10.95;7.95;;;17.80;93.40;;;18.47;68.38;100425.03;4976116;28;20102;-87
2023/07/20 06:03:18;;;;;;;9.65;8.25;;;17.90;93.40;;;18.48;68.35;100424.75;4977539;28;20129;-87
2023/07/20 06:05:47;;;;;;;11.40;8.43;;;18.00;93.60;;;18.57;68.73;100413.44;4960395;28;20097;-87
2023/07/20 06:08:14;;;;;;;10.10;7.35;;;18.00;93.90;;;18.77;68.78;100427.84;4976917;28;20035;-87
2023/07/20 06:10:41;;;;;;;8.27;6.47;;;18.30;93.70;;;19.02;68.17;100426.25;4975912;28;20086;-87
2023/07/20 06:13:08;;;;;;;8.05;6.35;;;18.60;93.20;;;19.17;67.45;100428.97;4977253;28;20524;-87
2023/07/20 06:15:36;;;;;;;8.70;5.82;;;18.80;92.10;;;19.16;67.25;100430.06;4976014;28;20081;-87
2023/07/20 06:18:03;;;;;;;8.35;5.45;;;18.80;91.20;;;19.23;67.28;100436.03;4975700;28;20567;-87
2023/07/20 06:20:31;;;;;;;9.48;5.43;;;18.90;91.40;;;19.41;67.51;100440.09;4976689;28;20097;-87
2023/07/20 06:23:00;;;;;;;8.93;6.03;;;19.10;91.60;;;19.41;66.84;100441.97;4975866;28;20448;-87
2023/07/20 06:25:28;;;;;;;8.68;5.93;;;19.10;90.90;;;19.42;66.58;100443.59;4991944;28;20137;-87
2023/07/20 06:27:57;;;;;;;9.00;6.10;;;19.20;90.60;;;19.43;66.22;100440.66;4975538;28;20496;-87
2023/07/20 06:30:25;;;;;;;10.00;6.05;;;19.10;90.20;;;19.29;64.79;100445.78;4975149;28;20051;-87
2023/07/20 06:32:53;;;;;;;10.27;6.40;;;19.00;88.70;;;19.29;65.84;100443.06;4975630;28;20450;-87
2023/07/20 06:35:20;;;;;;;8.50;6.55;;;19.00;89.90;;;19.27;65.61;100453.31;4975422;28;20416;-87
2023/07/20 06:37:48;;;;;;;11.52;6.55;;;18.90;89.60;;;19.23;65.68;100443.34;4991585;28;20093;-87
2023/07/20 06:40:17;;;;;;;7.63;6.38;;;18.80;89.30;;;19.25;65.09;100449.28;4975204;28;20055;-87
2023/07/20 06:42:44;;;;;;;13.55;6.88;;;18.80;89.40;;;19.26;65.38;100453.59;4971880;28;20452;-87
2023/07/20 06:45:12;;;;;;;10.00;6.60;;;18.80;89.30;;;19.25;66.17;100447.38;4955938;29;20166;-87
2023/07/20 06:47:40;;;;;;;8.07;6.63;;;18.80;90.20;;;19.25;65.66;100441.97;4955874;29;20055;-87
2023/07/20 06:50:09;;;;;;;11.45;8.27;;;18.80;89.90;;;19.30;64.73;100443.88;4955395;28;20039;-87
2023/07/20 06:52:36;;;;;;;11.02;8.27;;;18.90;89.10;;;19.43;63.89;100447.94;4955694;29;20142;-87
2023/07/20 06:55:04;;;;;;;10.40;8.50;;;19.00;87.80;;;19.42;64.49;100440.88;4955905;29;20054;-87
2023/07/20 06:57:33;;;;;;;13.25;9.80;;;19.10;88.30;;;19.37;64.69;100436.28;4955364;29;20146;-87
2023/07/20 07:00:00;;;;;;;15.00;11.52;;;19.00;88.30;;;19.35;65.02;100443.06;4955445;29;20047;-87
2023/07/20 07:02:27;;;;;;;14.63;11.38;;;19.00;88.50;;;19.43;64.67;100445.25;4955813;29;20134;-87
2023/07/20 07:04:56;;;;;;;15.13;12.48;;;19.10;88.70;;;19.48;65.05;100446.06;4954837;28;20484;-88
2023/07/20 07:07:23;;;;;;;17.52;14.68;;;19.20;88.90;;;19.69;64.10;100441.47;4955330;29;20420;-87
2023/07/20 07:09:50;;;;;;;18.67;16.67;;;19.40;87.80;;;19.88;64.25;100452.53;4955411;28;20074;-87
2023/07/20 07:12:17;;;;;;;15.98;14.27;;;19.70;87.60;;;19.95;61.98;100457.66;4955885;29;20050;-87
2023/07/20 07:14:46;;;;;;;15.50;14.02;;;19.80;84.70;;;20.10;63.07;100452.19;4956919;28;20043;-87
2023/07/20 07:17:14;;;;;;;14.85;12.23;;;20.00;85.70;;;20.28;62.90;100456.22;4989999;28;20216;-87
2023/07/20 07:19:42;;;;;;;11.60;9.63;;;20.20;85.20;;;20.21;61.51;100464.66;4974468;28;20106;-87
2023/07/20 07:22:09;;;;;;;10.80;8.90;;;20.10;83.10;;;20.07;61.24;100463.59;4974698;28;20042;-87
2023/07/20 07:24:36;;;;;;;9.52;8.52;;;20.00;83.20;;;20.00;62.12;100463.88;4974623;28;20085;-87
2023/07/20 07:27:04;;;;;;;8.98;7.03;;;19.80;84.30;;;19.93;62.15;100468.75;4975825;28;20066;-87
2023/07/20 07:29:32;;;;;;;8.63;7.00;;;19.70;84.40;;;19.94;60.41;100464.97;4974133;28;20050;-87
2023/07/20 07:32:01;;;;;;;9.70;8.70;;;19.70;83.10;;;20.12;60.38;100465.50;4974706;28;20042;-87
2023/07/20 07:34:28;;;;;;;12.32;9.55;;;19.90;83.30;;;20.28;61.01;100458.94;4975631;28;20118;-87
2023/07/20 07:36:56;;;;;;;11.43;9.25;;;20.10;83.30;;;20.31;59.37;100459.19;4974442;28;20488;-87
2023/07/20 07:39:24;;;;;;;11.38;9.63;;;20.20;81.20;;;20.34;58.58;100463.22;4973870;28;20082;-87
2023/07/20 07:41:51;;;;;;;11.23;9.32;;;20.30;80.40;;;20.44;59.21;100465.09;4975425;28;20034;-87
2023/07/20 07:44:21;;;;;;;9.93;8.07;;;20.40;80.90;;;20.42;59.33;100465.38;4990441;28;20141;-87
2023/07/20 07:46:48;;;;;;;9.98;7.80;;;20.40;81.00;;;20.56;59.46;100463.72;4975471;28;20039;-87
2023/07/20 07:49:18;;;;;;;10.80;6.90;;;20.50;80.30;;;20.70;59.46;100468.56;4990107;28;20050;-87
2023/07/20 07:51:46;;;;;;;8.10;6.55;;;20.70;81.00;;;20.82;58.45;100469.03;4974162;28;20137;-87
2023/07/20 07:54:13;;;;;;;7.38;5.30;;;20.90;79.40;;;20.86;57.25;100472.81;4975335;28;20062;-87
2023/07/20 07:56:40;;;;;;;5.78;4.60;;;20.90;77.80;;;20.95;58.76;100473.03;4974059;28;20043;-87
2023/07/20 07:59:08;;;;;;;7.03;4.35;;;21.10;79.40;;;21.01;55.22;100475.44;4973891;28;20043;-87
2023/07/20 08:01:35;;;;;;;6.85;3.97;;;21.10;75.50;;;20.94;55.77;100474.94;4975113;28;20053;-87
2023/07/20 08:04:03;;;;;;;6.03;4.38;;;21.00;75.90;;;21.06;54.11;100475.41;4974979;28;20102;-87
2023/07/20 08:06:32;;;;;;;5.85;4.53;;;21.20;74.30;;;21.11;55.30;100481.88;4973430;28;20631;-87
2023/07/20 08:08:59;;;;;;;6.40;3.95;;;21.20;75.80;;;21.19;57.13;100484.81;4974890;28;20038;-87
2023/07/20 08:11:26;;;;;;;7.13;4.68;;;21.30;77.60;;;20.93;57.84;100494.97;4989685;28;20144;-87
2023/07/20 08:13:54;;;;;;;4.65;3.50;;;21.00;77.80;;;20.69;57.32;100500.28;4973843;28;20050;-87
2023/07/20 08:16:21;;;;;;;7.70;3.22;;;20.70;77.80;;;20.54;56.68;100493.00;4974728;28;20403;-87
2023/07/20 08:18:48;;;;;;;5.18;3.10;;;20.40;77.00;;;20.38;57.15;100499.53;4974847;28;20118;-87
2023/07/20 08:21:16;;;;;;;5.63;2.70;;;20.20;78.50;;;20.29;57.12;100498.47;4974380;28;20542;-87
2023/07/20 08:23:45;;;;;;;4.78;2.58;;;20.00;78.40;;;20.24;57.79;100501.19;4974886;28;20043;-87
2023/07/20 08:26:12;;;;;;;4.47;2.75;;;19.90;79.30;;;20.32;57.70;100501.44;4974967;28;20050;-87
2023/07/20 08:28:40;;;;;;;4.78;3.28;;;20.00;79.80;;;20.50;58.30;100499.28;4974828;28;20042;-87
2023/07/20 08:31:07;;;;;;;7.93;4.30;;;20.20;80.10;;;20.70;58.67;100496.47;4974731;28;20121;-87
2023/07/20 08:33:34;;;;;;;6.90;3.58;;;20.60;80.20;;;20.71;56.91;100486.44;4973618;28;20050;-87
2023/07/20 08:36:03;;;;;;;7.00;4.10;;;20.70;77.80;;;20.83;57.04;100486.91;4974637;28;20046;-87
2023/07/20 08:38:30;;;;;;;7.07;4.80;;;20.80;77.50;;;20.80;55.32;100490.19;4973187;28;20042;-87
2023/07/20 08:40:59;;;;;;;7.32;4.60;;;20.80;75.80;;;20.91;62.92;100504.50;4972884;28;20078;-87
2023/07/20 08:43:28;;;;;;;7.47;5.03;;;20.90;75.00;;;21.04;55.40;100493.84;4973722;28;20097;-87
2023/07/20 08:45:56;;;;;;;6.57;5.22;;;21.10;75.60;;;21.12;55.67;100500.56;4984120;28;20043;-86
2023/07/20 08:48:24;;;;;;;5.82;4.45;;;21.20;75.60;;;21.11;53.54;100495.44;4993576;28;20149;-86
2023/07/20 08:50:53;;;;;;;5.53;4.22;;;21.20;73.00;;;20.89;53.84;100502.09;4993542;28;20038;-86
2023/07/20 08:53:21;;;;;;;4.40;3.30;;;20.90;73.40;;;20.76;54.41;100508.09;4992110;28;20086;-86
2023/07/20 08:55:52;;;;;;;5.03;3.03;;;20.60;74.50;;;20.74;55.64;100505.69;4978096;28;20047;-86
2023/07/20 08:58:21;;;;;;;5.55;2.75;;;20.60;75.90;;;20.90;56.35;100503.69;4973003;28;20486;-87
2023/07/20 09:00:50;;;;;;;3.88;2.35;;;20.80;77.00;;;21.04;55.79;100499.28;4972836;28;20046;-87
2023/07/20 09:03:18;;;;;;;4.50;2.38;;;21.00;75.80;;;21.03;53.08;100504.97;4972940;28;20551;-87
2023/07/20 09:05:46;;;;;;;3.17;2.00;;;21.00;72.60;;;20.89;53.13;100507.50;4973032;28;20161;-87
2023/07/20 09:08:13;;;;;;;6.38;2.13;;;20.90;72.60;;;20.76;53.87;100497.25;4988997;28;20731;-87
2023/07/20 09:10:40;;;;;;;3.92;2.13;;;20.70;73.70;;;20.80;55.79;100504.56;4972798;28;20145;-87
2023/07/20 09:13:08;;;;;;;5.18;2.40;;;20.70;76.30;;;20.74;55.33;100505.69;4972842;28;20146;-87
2023/07/20 09:15:36;;;;;;;4.03;2.00;;;20.60;75.20;;;20.68;55.57;100504.06;4972824;28;20143;-87
2023/07/20 09:18:07;;;;;;;3.13;1.52;;;20.60;75.90;;;20.64;53.98;100502.97;4973926;28;20047;-87
2023/07/20 09:20:34;;;;;;;8.35;0.90;;;20.50;74.10;;;20.69;53.20;100504.88;4972465;28;20063;-87
2023/07/20 09:23:06;;;;;;;1.73;0.90;;;20.60;73.20;;;20.64;53.43;100507.59;4972702;28;20069;-87
2023/07/20 09:25:34;;;;;;;2.72;1.13;;;20.50;73.50;;;20.72;54.20;100502.41;4972519;28;20043;-87
2023/07/20 09:28:04;;;;;;;2.53;0.85;;;20.60;74.30;;;20.85;54.86;100498.31;4972061;28;20043;-87
2023/07/20 09:30:32;;;;;;;3.13;1.25;;;20.80;74.40;;;20.97;54.85;100498.75;4972085;28;20046;-87
2023/07/20 09:33:01;;;;;;;2.60;1.00;;;21.10;74.40;;;21.02;54.61;100498.72;4973425;28;20042;-87
2023/07/20 09:35:28;;;;;;;2.38;0.90;;;21.20;73.80;;;21.07;52.09;100504.13;4973525;28;20118;-87
2023/07/20 09:38:01;;;;;;;3.10;1.05;;;21.30;71.50;;;21.15;52.81;100494.59;4972462;28;20129;-87
2023/07/20 09:40:28;;;;;;;2.13;1.10;;;21.40;71.50;;;21.24;52.68;100497.53;4973267;28;20054;-87
2023/07/20 09:43:00;;;;;;;2.70;1.10;;;21.50;71.10;;;21.29;50.94;100498.31;4973522;28;20047;-87
2023/07/20 09:45:31;;;;;;;2.35;1.00;;;21.50;69.00;;;21.30;50.45;100491.81;4973656;28;20046;-87
2023/07/20 09:48:06;;;;;;;2.50;0.90;;;21.60;68.40;;;21.22;52.46;100494.28;4972202;28;20071;-87
2023/07/20 09:50:34;;;;;;;2.40;1.00;;;21.40;70.10;;;21.19;51.44;100487.53;4973290;28;20057;-87
2023/07/20 09:53:02;;;;;;;2.40;0.95;;;21.30;69.70;;;21.09;49.32;100485.69;4973592;28;20073;-87
2023/07/20 09:55:31;;;;;;;5.35;0.93;;;21.20;67.10;;;21.08;48.32;100480.53;4972234;28;20061;-86
2023/07/20 09:57:59;;;;;;;4.93;0.90;;;21.10;66.30;;;21.00;50.95;100487.38;4988218;28;20078;-86
2023/07/20 10:00:26;;;;;;;2.10;0.90;;;21.00;69.60;;;20.97;50.45;100487.09;4971702;28;20149;-87
2023/07/20 10:02:55;;;;;;;2.80;1.00;;;21.00;68.50;;;21.06;52.61;100491.66;4988199;28;20153;-87
2023/07/20 10:05:27;;;;;;;2.67;0.80;;;21.10;71.10;;;21.17;51.62;100492.41;4972074;28;20133;-87
2023/07/20 10:07:56;;;;;;;1.83;0.90;;;21.30;70.70;;;21.30;50.65;100482.84;4973224;28;20047;-86
2023/07/20 10:10:24;;;;;;;2.58;1.10;;;21.50;68.90;;;21.30;47.21;100480.13;4973017;28;20051;-87
2023/07/20 10:12:52;;;;;;;2.38;0.90;;;21.50;64.10;;;21.35;48.90;100488.25;4973535;28;20771;-87